createdAt,value
2023-04-12T00:03:00.297Z,14.20
2023-04-12T00:08:02.372Z,14.07
2023-04-12T00:13:05.551Z,13.85
2023-04-12T00:18:06.935Z,15.65
2023-04-12T00:23:05.227Z,14.60
2023-04-12T00:28:06.278Z,14.90
2023-04-12T00:33:05.038Z,14.38
2023-04-12T00:38:11.210Z,14.63
2023-04-12T00:43:18.439Z,19.08
2023-04-12T00:48:19.531Z,20.95
2023-04-12T00:53:22.988Z,22.75
2023-04-12T00:58:26.161Z,15.93
2023-04-12T01:03:24.700Z,17.20
2023-04-12T01:08:44.637Z,14.27
2023-04-12T01:13:53.435Z,13.32
2023-04-12T01:18:59.846Z,13.85
2023-04-12T01:24:14.898Z,11.02
2023-04-12T01:29:15.811Z,10.93
2023-04-12T01:34:17.317Z,10.02
2023-04-12T01:39:23.814Z,10.00
2023-04-12T01:44:25.897Z,6.55
2023-04-12T01:49:34.794Z,6.63
2023-04-12T01:54:39.603Z,6.65
2023-04-12T01:59:46.857Z,7.82
2023-04-12T02:04:46.848Z,6.75
2023-04-12T02:09:45.810Z,7.75
2023-04-12T02:14:45.040Z,8.05
2023-04-12T02:19:49.676Z,8.48
2023-04-12T02:24:51.167Z,7.78
2023-04-12T02:30:02.326Z,8.18
2023-04-12T02:35:04.032Z,9.48
2023-04-12T02:40:06.532Z,8.60
2023-04-12T02:45:06.386Z,9.15
2023-04-12T02:50:09.635Z,8.98
2023-04-12T02:55:18.468Z,11.60
2023-04-12T03:00:17.852Z,12.52
2023-04-12T03:05:22.736Z,11.60
2023-04-12T03:10:24.858Z,11.65
2023-04-12T03:15:34.832Z,12.27
2023-04-12T03:20:34.270Z,12.65
2023-04-12T03:25:38.713Z,13.70
2023-04-12T03:31:01.600Z,12.18
2023-04-12T03:36:13.540Z,12.97
2023-04-12T03:41:16.480Z,15.10
2023-04-12T03:46:18.416Z,13.18
2023-04-12T03:51:30.900Z,13.70
2023-04-12T03:56:36.762Z,12.27
2023-04-12T04:01:42.118Z,17.00
2023-04-12T04:06:43.077Z,15.77
2023-04-12T04:11:46.142Z,13.85
2023-04-12T04:16:46.922Z,13.73
2023-04-12T04:21:48.064Z,13.05
2023-04-12T04:26:48.286Z,13.95
2023-04-12T04:32:00.500Z,12.38
2023-04-12T04:36:59.603Z,13.20
2023-04-12T04:42:01.356Z,12.30
2023-04-12T04:47:25.205Z,13.05
2023-04-12T04:52:25.752Z,13.70
2023-04-12T04:57:33.468Z,14.50
2023-04-12T05:02:37.276Z,13.35
2023-04-12T05:07:38.783Z,14.63
2023-04-12T05:12:37.924Z,13.45
2023-04-12T05:17:38.276Z,13.30
2023-04-12T05:22:40.966Z,12.35
2023-04-12T05:27:42.281Z,12.27
2023-04-12T05:32:50.534Z,11.88
2023-04-12T05:37:54.245Z,13.52
2023-04-12T05:42:55.116Z,12.55
2023-04-12T05:47:56.356Z,13.18
2023-04-12T05:52:55.668Z,12.45
2023-04-12T05:57:58.816Z,14.48
2023-04-12T06:02:58.681Z,13.68
2023-04-12T06:08:00.137Z,16.40
2023-04-12T06:12:58.291Z,14.30
2023-04-12T06:18:00.639Z,12.07
2023-04-12T06:23:01.963Z,13.35
2023-04-12T06:28:03.637Z,13.90
2023-04-12T06:33:04.266Z,14.10
2023-04-12T06:38:06.210Z,17.92
2023-04-12T06:43:08.469Z,12.80
2023-04-12T06:48:11.153Z,11.32
2023-04-12T06:53:10.516Z,12.50
2023-04-12T06:58:10.255Z,12.80
2023-04-12T07:03:09.477Z,11.23
2023-04-12T07:08:16.102Z,12.18
2023-04-12T07:13:15.326Z,11.65
2023-04-12T07:18:13.685Z,12.00
2023-04-12T07:24:14.423Z,11.07
2023-04-12T07:35:52.402Z,9.07
2023-04-12T07:41:17.472Z,10.80
2023-04-12T07:46:19.455Z,9.38
2023-04-12T07:51:18.890Z,10.13
2023-04-12T07:56:21.817Z,9.90
2023-04-12T08:01:22.326Z,9.82
2023-04-12T08:06:22.967Z,9.15
2023-04-12T08:11:22.904Z,9.40
2023-04-12T08:16:22.942Z,9.00
2023-04-12T08:21:25.087Z,8.93
2023-04-12T08:26:26.709Z,12.82
2023-04-12T08:31:26.430Z,7.70
2023-04-12T08:36:27.507Z,7.72
2023-04-12T08:41:28.911Z,8.00
2023-04-12T08:46:30.283Z,7.18
2023-04-12T08:51:33.301Z,6.78
2023-04-12T08:56:31.739Z,7.55
2023-04-12T09:01:34.344Z,8.20
2023-04-12T09:06:35.084Z,7.57
2023-04-12T09:11:36.295Z,7.65
2023-04-12T09:16:40.759Z,6.90
2023-04-12T09:21:54.014Z,8.13
2023-04-12T09:27:07.454Z,8.47
2023-04-12T09:32:11.953Z,7.80
2023-04-12T09:37:17.131Z,7.70
2023-04-12T09:42:32.516Z,7.78
2023-04-12T09:47:40.543Z,7.70
2023-04-12T09:52:39.381Z,9.57
2023-04-12T09:57:42.697Z,9.38
2023-04-12T10:02:44.861Z,9.25
2023-04-12T10:07:47.701Z,10.57
2023-04-12T10:12:48.133Z,9.52
2023-04-12T10:18:49.848Z,8.45
2023-04-12T10:23:52.050Z,8.10
2023-04-12T10:29:33.931Z,7.78
2023-04-12T10:34:32.876Z,8.25
2023-04-12T10:39:47.600Z,7.88
2023-04-12T10:44:47.461Z,8.05
2023-04-12T10:50:25.331Z,7.72
2023-04-12T10:55:36.288Z,8.70
2023-04-12T11:00:59.561Z,8.38
2023-04-12T11:06:20.196Z,8.18
2023-04-12T11:11:42.580Z,6.50
2023-04-12T11:17:07.530Z,5.82
2023-04-12T11:22:07.636Z,8.05
2023-04-12T11:27:07.112Z,27.95
2023-04-12T11:32:10.263Z,15.10
2023-04-12T11:37:09.986Z,14.50
2023-04-12T11:42:22.370Z,13.32
2023-04-12T11:47:24.242Z,11.70
2023-04-12T11:52:34.118Z,13.07
2023-04-12T11:57:34.416Z,12.10
2023-04-12T12:02:41.232Z,12.65
2023-04-12T12:07:46.388Z,12.20
2023-04-12T12:12:45.672Z,11.60
2023-04-12T12:17:44.275Z,14.75
2023-04-12T12:22:47.978Z,10.95
2023-04-12T12:27:50.827Z,11.45
2023-04-12T12:32:52.588Z,11.05
2023-04-12T12:37:59.870Z,10.75
2023-04-12T12:43:01.511Z,15.82
2023-04-12T12:48:04.180Z,13.98
2023-04-12T12:53:07.044Z,12.38
2023-04-12T12:58:07.316Z,11.82
2023-04-12T13:03:12.425Z,11.10
2023-04-12T13:08:23.889Z,12.85
2023-04-12T13:13:34.785Z,12.55
2023-04-12T13:18:34.408Z,8.98
2023-04-12T13:23:36.113Z,9.63
2023-04-12T13:28:40.762Z,8.55
2023-04-12T13:33:43.726Z,5.88
2023-04-12T13:38:43.074Z,5.78
2023-04-12T13:43:45.700Z,4.38
2023-04-12T13:48:43.659Z,3.95
2023-04-12T13:53:45.107Z,6.15
2023-04-12T13:58:46.045Z,3.20
2023-04-12T14:03:47.084Z,6.20
2023-04-12T14:08:50.184Z,7.82
2023-04-12T14:13:51.092Z,9.33
2023-04-12T14:18:51.041Z,6.15
2023-04-12T14:23:51.727Z,7.65
2023-04-12T14:28:57.499Z,9.07
2023-04-12T14:33:57.761Z,6.28
2023-04-12T14:39:10.448Z,11.80
2023-04-12T14:44:12.654Z,8.70
2023-04-12T14:49:14.751Z,10.85
2023-04-12T14:54:15.724Z,5.80
2023-04-12T14:59:16.813Z,2.53
2023-04-12T15:04:18.210Z,3.88
2023-04-12T15:09:17.857Z,4.35
2023-04-12T15:14:20.638Z,8.88
2023-04-12T15:19:23.425Z,8.43
2023-04-12T15:24:25.442Z,7.82
2023-04-12T15:29:24.740Z,3.05
2023-04-12T15:34:25.357Z,3.92
2023-04-12T15:39:23.872Z,2.67
2023-04-12T15:44:25.781Z,4.97
2023-04-12T15:49:26.724Z,3.50
2023-04-12T15:54:44.165Z,3.28
2023-04-12T15:59:43.358Z,5.57
2023-04-12T16:04:43.416Z,3.92
2023-04-12T16:09:44.666Z,7.05
2023-04-12T16:19:44.668Z,5.28
2023-04-12T16:24:43.237Z,6.68
2023-04-12T16:29:43.105Z,5.95
2023-04-12T16:34:43.404Z,4.97
2023-04-12T16:40:05.745Z,7.53
2023-04-12T16:45:05.003Z,2.60
2023-04-12T16:50:14.388Z,2.55
2023-04-12T16:55:13.215Z,5.35
2023-04-12T17:00:21.133Z,8.93
2023-04-12T17:05:23.022Z,7.88
2023-04-12T17:10:33.185Z,6.18
2023-04-12T17:15:35.212Z,9.32
2023-04-12T17:20:59.117Z,10.82
2023-04-12T17:25:58.310Z,11.10
2023-04-12T17:31:18.751Z,16.08
2023-04-12T17:42:02.213Z,12.63
2023-04-12T17:47:14.048Z,10.83
2023-04-12T17:52:17.277Z,22.42
2023-04-12T17:57:18.800Z,15.43
2023-04-12T18:02:19.708Z,10.23
2023-04-12T18:07:20.315Z,13.15
2023-04-12T18:12:20.539Z,19.65
2023-04-12T18:17:31.462Z,13.32
2023-04-12T18:22:31.686Z,16.88
2023-04-12T18:27:32.887Z,12.75
2023-04-12T18:32:35.368Z,9.93
2023-04-12T18:37:38.187Z,10.20
2023-04-12T18:42:40.219Z,12.43
2023-04-12T18:47:39.338Z,11.93
2023-04-12T18:52:46.356Z,9.20
2023-04-12T18:57:48.481Z,9.93
2023-04-12T19:02:52.016Z,19.25
2023-04-12T19:07:53.213Z,10.53
2023-04-12T19:12:54.773Z,8.63
2023-04-12T19:17:59.975Z,7.93
2023-04-12T19:23:02.200Z,7.80
2023-04-12T19:28:02.562Z,8.20
2023-04-12T19:33:04.615Z,7.30
2023-04-12T19:38:13.370Z,7.93
2023-04-12T19:43:21.230Z,3.78
2023-04-12T19:48:20.262Z,3.90
2023-04-12T19:53:24.548Z,6.13
2023-04-12T19:58:25.057Z,5.07
2023-04-12T20:03:29.120Z,3.80
2023-04-12T20:08:29.816Z,5.68
2023-04-12T20:13:40.979Z,3.95
2023-04-12T20:18:49.088Z,5.28
2023-04-12T20:23:55.233Z,5.93
2023-04-12T20:29:02.474Z,6.68
2023-04-12T20:34:04.287Z,4.10
2023-04-12T20:39:07.923Z,8.23
2023-04-12T20:44:19.253Z,4.72
2023-04-12T20:49:33.747Z,4.38
2023-04-12T20:54:44.066Z,7.53
2023-04-12T21:00:19.404Z,3.13
2023-04-12T21:05:19.308Z,3.78
2023-04-12T21:10:25.237Z,4.00
2023-04-12T21:15:42.337Z,4.78
2023-04-12T21:20:58.872Z,2.67
2023-04-12T21:26:02.909Z,2.57
2023-04-12T21:36:43.433Z,7.75
2023-04-12T21:41:49.655Z,4.38
2023-04-12T21:47:10.516Z,3.53
2023-04-12T21:52:47.807Z,4.03
2023-04-12T21:57:53.322Z,4.43
2023-04-12T22:02:55.275Z,2.50
2023-04-12T22:08:02.656Z,3.60
2023-04-12T22:13:14.505Z,6.35
2023-04-12T22:18:46.556Z,3.38
2023-04-12T22:23:46.439Z,6.63
2023-04-12T22:29:00.970Z,3.92
2023-04-12T22:34:12.091Z,2.53
2023-04-12T22:39:20.892Z,3.47
2023-04-12T22:44:40.322Z,3.42
2023-04-12T22:49:53.728Z,3.90
2023-04-12T22:54:56.319Z,2.80
2023-04-12T22:59:55.153Z,5.53
2023-04-12T23:04:57.125Z,2.97
2023-04-12T23:09:59.294Z,3.20
2023-04-12T23:14:58.543Z,3.35
2023-04-12T23:19:57.999Z,4.72
2023-04-12T23:25:00.274Z,3.70
2023-04-12T23:29:59.162Z,3.75
2023-04-12T23:35:05.659Z,5.22
2023-04-12T23:40:12.853Z,3.83
2023-04-12T23:45:12.887Z,3.47
2023-04-12T23:50:14.846Z,3.72
2023-04-12T23:55:18.490Z,4.35
